createdAt,value
2018-03-30T00:00:46.253Z,25.50
2018-03-30T00:03:13.844Z,29.40
2018-03-30T00:05:41.561Z,24.07
2018-03-30T00:08:09.199Z,25.23
2018-03-30T00:10:42.375Z,23.40
2018-03-30T00:13:10.028Z,24.20
2018-03-30T00:15:37.743Z,22.60
2018-03-30T00:18:05.391Z,21.97
2018-03-30T00:20:33.102Z,21.27
2018-03-30T00:23:00.803Z,21.13
2018-03-30T00:25:28.485Z,27.77
2018-03-30T00:27:56.120Z,23.70
2018-03-30T00:30:23.850Z,23.03
2018-03-30T00:32:51.508Z,26.30
2018-03-30T00:35:19.199Z,23.07
2018-03-30T00:37:46.890Z,24.60
2018-03-30T00:40:14.551Z,23.17
2018-03-30T00:42:42.236Z,23.83
2018-03-30T00:45:09.868Z,23.73
2018-03-30T00:47:37.546Z,21.97
2018-03-30T00:50:05.189Z,22.77
2018-03-30T00:52:32.917Z,25.10
2018-03-30T00:55:00.617Z,28.30
2018-03-30T00:57:28.331Z,27.63
2018-03-30T00:59:56.028Z,25.70
2018-03-30T01:02:23.713Z,30.00
2018-03-30T01:04:51.367Z,23.70
2018-03-30T01:07:19.108Z,24.70
2018-03-30T01:09:46.770Z,23.50
2018-03-30T01:12:14.484Z,25.00
2018-03-30T01:14:42.178Z,25.33
2018-03-30T01:17:09.894Z,25.30
2018-03-30T01:19:37.574Z,24.50
2018-03-30T01:22:05.266Z,26.50
2018-03-30T01:24:32.902Z,26.53
2018-03-30T01:27:00.596Z,26.47
2018-03-30T01:29:28.246Z,26.90
2018-03-30T01:31:55.995Z,25.67
2018-03-30T01:34:23.636Z,25.20
2018-03-30T01:36:51.325Z,27.47
2018-03-30T01:39:18.965Z,27.90
2018-03-30T01:41:46.668Z,27.87
2018-03-30T01:44:14.330Z,23.30
2018-03-30T01:46:42.018Z,25.03
2018-03-30T01:49:09.671Z,25.53
2018-03-30T01:51:37.448Z,27.20
2018-03-30T01:54:05.090Z,26.70
2018-03-30T01:56:32.828Z,27.93
2018-03-30T01:59:00.510Z,25.53
2018-03-30T02:01:28.286Z,30.47
2018-03-30T02:03:55.929Z,31.77
2018-03-30T02:06:23.657Z,31.23
2018-03-30T02:08:51.312Z,31.90
2018-03-30T02:11:19.053Z,32.10
2018-03-30T02:13:46.728Z,28.47
2018-03-30T02:16:14.386Z,26.40
2018-03-30T02:18:42.087Z,37.50
2018-03-30T02:21:09.739Z,37.47
2018-03-30T02:23:37.474Z,41.73
2018-03-30T02:26:05.196Z,31.80
2018-03-30T02:28:32.889Z,35.90
2018-03-30T02:31:00.596Z,38.57
2018-03-30T02:33:28.277Z,40.13
2018-03-30T02:35:55.937Z,33.37
2018-03-30T02:38:23.625Z,55.70
2018-03-30T02:40:51.288Z,50.93
2018-03-30T02:43:19.051Z,62.93
2018-03-30T02:45:46.725Z,72.30
2018-03-30T02:48:14.440Z,116.13
2018-03-30T02:50:42.096Z,161.43
2018-03-30T02:53:09.847Z,126.03
2018-03-30T02:55:37.499Z,118.93
2018-03-30T02:58:05.221Z,167.90
2018-03-30T03:00:32.889Z,186.03
2018-03-30T03:03:00.923Z,109.73
2018-03-30T03:05:28.587Z,115.90
2018-03-30T03:07:56.325Z,142.07
2018-03-30T03:10:24.021Z,103.13
2018-03-30T03:12:51.708Z,122.33
2018-03-30T03:15:19.405Z,186.33
2018-03-30T03:17:47.131Z,166.23
2018-03-30T03:20:14.861Z,196.40
2018-03-30T03:22:42.586Z,160.87
2018-03-30T03:25:10.228Z,177.00
2018-03-30T03:27:37.918Z,171.83
2018-03-30T03:30:05.635Z,275.63
2018-03-30T03:32:33.362Z,171.17
2018-03-30T03:35:01.125Z,181.07
2018-03-30T03:37:28.868Z,221.37
2018-03-30T03:39:56.562Z,82.20
2018-03-30T03:42:24.288Z,122.23
2018-03-30T03:44:51.955Z,126.73
2018-03-30T03:47:19.682Z,90.67
2018-03-30T03:49:47.353Z,149.67
2018-03-30T03:52:15.071Z,76.33
2018-03-30T03:54:42.702Z,140.23
2018-03-30T03:57:10.333Z,99.57
2018-03-30T03:59:38.054Z,119.97
2018-03-30T04:02:05.746Z,74.10
2018-03-30T04:04:33.474Z,90.13
2018-03-30T04:07:01.167Z,80.10
2018-03-30T04:09:28.857Z,110.57
2018-03-30T04:11:56.500Z,81.83
2018-03-30T04:14:24.232Z,50.50
2018-03-30T04:16:51.876Z,52.27
2018-03-30T04:19:19.580Z,35.90
2018-03-30T04:21:47.232Z,65.43
2018-03-30T04:24:14.980Z,32.67
2018-03-30T04:26:42.612Z,45.10
2018-03-30T04:29:10.325Z,52.97
2018-03-30T04:31:38.008Z,26.30
2018-03-30T04:34:05.738Z,35.60
2018-03-30T04:36:33.421Z,37.00
2018-03-30T04:39:01.132Z,36.17
2018-03-30T04:41:28.780Z,126.07
2018-03-30T04:43:56.497Z,152.73
2018-03-30T04:46:24.191Z,105.73
2018-03-30T04:48:51.882Z,186.93
2018-03-30T04:51:19.516Z,76.63
2018-03-30T04:53:47.201Z,153.47
2018-03-30T04:56:14.855Z,150.03
2018-03-30T04:58:42.552Z,104.60
2018-03-30T05:01:10.246Z,94.50
2018-03-30T05:03:37.930Z,203.57
2018-03-30T05:06:05.588Z,146.83
2018-03-30T05:08:33.268Z,269.90
2018-03-30T05:11:00.915Z,205.00
2018-03-30T05:13:28.671Z,245.10
2018-03-30T05:15:56.386Z,247.90
2018-03-30T05:18:24.075Z,123.90
2018-03-30T05:20:51.743Z,218.47
2018-03-30T05:23:19.478Z,176.03
2018-03-30T05:25:47.125Z,150.93
2018-03-30T05:28:14.861Z,282.80
2018-03-30T05:30:42.494Z,250.50
2018-03-30T05:33:10.211Z,159.83
2018-03-30T05:35:37.865Z,162.70
2018-03-30T05:38:05.517Z,214.93
2018-03-30T05:40:33.194Z,153.40
2018-03-30T05:43:00.917Z,165.13
2018-03-30T05:45:28.606Z,138.93
2018-03-30T05:47:56.274Z,169.70
2018-03-30T05:50:23.995Z,144.57
2018-03-30T05:52:51.675Z,112.93
2018-03-30T05:55:19.374Z,101.07
2018-03-30T05:57:47.025Z,139.23
2018-03-30T06:00:14.706Z,98.13
2018-03-30T06:02:42.372Z,87.27
2018-03-30T06:05:10.044Z,77.47
2018-03-30T06:07:37.682Z,96.60
2018-03-30T06:10:05.414Z,75.57
2018-03-30T06:12:33.090Z,70.13
2018-03-30T06:15:00.864Z,115.67
2018-03-30T06:17:28.537Z,90.77
2018-03-30T06:19:56.252Z,120.90
2018-03-30T06:22:23.902Z,88.50
2018-03-30T06:24:51.597Z,83.80
2018-03-30T06:27:19.233Z,90.63
2018-03-30T06:29:46.968Z,53.23
2018-03-30T06:32:14.641Z,70.20
2018-03-30T06:34:42.340Z,90.73
2018-03-30T06:37:10.001Z,96.17
2018-03-30T06:39:37.694Z,50.73
2018-03-30T06:42:05.406Z,69.33
2018-03-30T06:44:33.111Z,67.57
2018-03-30T06:47:00.826Z,54.53
2018-03-30T06:49:28.511Z,94.50
2018-03-30T06:51:56.207Z,62.20
2018-03-30T06:54:23.915Z,74.70
2018-03-30T06:56:51.570Z,41.53
2018-03-30T06:59:19.337Z,24.33
2018-03-30T07:01:47.042Z,67.50
2018-03-30T07:04:14.789Z,20.50
2018-03-30T07:06:42.518Z,17.40
2018-03-30T07:09:10.268Z,18.80
2018-03-30T07:11:37.983Z,18.87
2018-03-30T07:14:05.730Z,19.13
2018-03-30T07:16:33.403Z,18.13
2018-03-30T07:19:01.127Z,18.57
2018-03-30T07:21:28.849Z,19.20
2018-03-30T07:23:56.531Z,20.70
2018-03-30T07:26:24.238Z,19.50
2018-03-30T07:28:52.230Z,19.40
2018-03-30T07:31:19.968Z,20.13
2018-03-30T07:33:47.675Z,18.27
2018-03-30T07:36:15.427Z,20.00
2018-03-30T07:38:43.147Z,17.53
2018-03-30T07:41:10.907Z,17.40
2018-03-30T07:43:38.619Z,20.30
2018-03-30T07:46:06.365Z,16.17
2018-03-30T07:48:34.071Z,13.63
2018-03-30T07:51:01.842Z,13.57
2018-03-30T07:53:29.553Z,14.23
2018-03-30T07:55:57.315Z,16.40
2018-03-30T07:58:25.035Z,13.00
2018-03-30T08:00:52.774Z,12.63
2018-03-30T08:03:20.478Z,12.67
2018-03-30T08:05:48.215Z,11.83
2018-03-30T08:08:15.914Z,15.50
2018-03-30T08:10:43.649Z,12.70
2018-03-30T08:13:11.330Z,17.33
2018-03-30T08:15:39.026Z,11.37
2018-03-30T08:18:06.740Z,12.97
2018-03-30T08:20:34.523Z,11.93
2018-03-30T08:23:02.243Z,13.40
2018-03-30T08:25:30.028Z,12.20
2018-03-30T08:27:57.766Z,12.13
2018-03-30T08:30:25.506Z,11.03
2018-03-30T08:32:53.229Z,11.57
2018-03-30T08:35:20.986Z,10.83
2018-03-30T08:37:48.714Z,12.67
2018-03-30T08:40:16.486Z,11.47
2018-03-30T08:42:44.167Z,11.90
2018-03-30T08:45:11.917Z,10.50
2018-03-30T08:47:39.638Z,11.80
2018-03-30T08:50:07.382Z,12.23
2018-03-30T08:52:35.056Z,12.67
2018-03-30T08:55:02.763Z,12.00
2018-03-30T08:57:30.531Z,10.10
2018-03-30T08:59:58.204Z,10.50
2018-03-30T09:02:25.920Z,10.73
2018-03-30T09:04:53.628Z,11.13
2018-03-30T09:07:21.363Z,9.10
2018-03-30T09:09:49.070Z,11.67
2018-03-30T09:12:16.809Z,11.40
2018-03-30T09:14:44.505Z,9.60
2018-03-30T09:17:12.298Z,9.53
2018-03-30T09:19:40.031Z,10.43
2018-03-30T09:22:07.755Z,12.67
2018-03-30T09:24:35.546Z,12.77
2018-03-30T09:27:03.330Z,11.77
2018-03-30T09:29:31.056Z,10.13
2018-03-30T09:31:58.806Z,11.47
2018-03-30T09:34:26.517Z,11.40
2018-03-30T09:36:54.272Z,10.53
2018-03-30T09:39:21.975Z,10.97
2018-03-30T09:41:49.730Z,10.93
2018-03-30T09:44:17.436Z,12.87
2018-03-30T09:46:45.128Z,12.50
2018-03-30T09:49:12.818Z,11.17
2018-03-30T09:51:40.523Z,9.20
2018-03-30T09:54:08.184Z,8.97
2018-03-30T09:56:35.880Z,11.80
2018-03-30T09:59:03.553Z,10.30
2018-03-30T10:01:31.320Z,10.53
2018-03-30T10:03:59.059Z,9.83
2018-03-30T10:06:26.765Z,11.47
2018-03-30T10:08:54.430Z,12.47
2018-03-30T10:11:22.330Z,11.73
2018-03-30T10:13:50.018Z,11.40
2018-03-30T10:16:17.723Z,10.80
2018-03-30T10:18:45.398Z,10.30
2018-03-30T10:21:13.118Z,9.80
2018-03-30T10:23:40.790Z,12.30
2018-03-30T10:26:08.476Z,11.03
2018-03-30T10:28:36.126Z,9.07
2018-03-30T10:31:03.821Z,10.83
2018-03-30T10:33:32.430Z,12.23
2018-03-30T10:36:00.128Z,10.30
2018-03-30T10:38:27.886Z,13.70
2018-03-30T10:40:55.534Z,13.70
2018-03-30T10:43:23.232Z,9.90
2018-03-30T10:45:50.918Z,9.57
2018-03-30T10:48:18.595Z,11.17
2018-03-30T10:50:46.257Z,13.90
2018-03-30T10:53:13.958Z,11.80
2018-03-30T10:55:41.591Z,13.07
2018-03-30T10:58:09.322Z,12.10
2018-03-30T11:00:36.979Z,9.60
2018-03-30T11:03:04.674Z,8.30
2018-03-30T11:05:32.310Z,10.43
2018-03-30T11:07:59.980Z,12.10
2018-03-30T11:10:27.602Z,9.13
2018-03-30T11:12:55.298Z,10.10
2018-03-30T11:15:22.940Z,9.63
2018-03-30T11:17:50.646Z,9.00
2018-03-30T11:20:18.298Z,9.87
2018-03-30T11:22:45.978Z,9.50
2018-03-30T11:25:13.651Z,10.20
2018-03-30T11:27:41.318Z,8.30
2018-03-30T11:30:08.959Z,9.17
2018-03-30T11:32:36.625Z,8.87
2018-03-30T11:35:04.235Z,8.43
2018-03-30T11:37:31.910Z,10.57
2018-03-30T11:39:59.550Z,9.70
2018-03-30T11:42:27.247Z,8.87
2018-03-30T11:44:54.885Z,10.37
2018-03-30T11:47:22.596Z,9.63
2018-03-30T11:49:50.251Z,8.57
2018-03-30T11:52:17.990Z,10.50
2018-03-30T11:54:45.702Z,10.93
2018-03-30T11:57:13.381Z,8.30
2018-03-30T11:59:41.110Z,8.10
2018-03-30T12:02:08.855Z,9.87
2018-03-30T12:04:36.530Z,9.90
2018-03-30T12:07:04.311Z,9.13
2018-03-30T12:09:31.969Z,10.10
2018-03-30T12:11:59.678Z,10.07
2018-03-30T12:14:27.356Z,10.30
2018-03-30T12:16:55.090Z,9.40
2018-03-30T12:19:22.790Z,8.93
2018-03-30T12:21:50.491Z,10.07
2018-03-30T12:24:18.254Z,9.90
2018-03-30T12:26:45.966Z,9.87
2018-03-30T12:29:13.710Z,9.47
2018-03-30T12:31:41.422Z,13.63
2018-03-30T12:34:09.151Z,10.33
2018-03-30T12:36:36.837Z,8.70
2018-03-30T12:39:04.621Z,10.27
2018-03-30T12:41:32.305Z,10.70
2018-03-30T12:44:00.066Z,9.70
2018-03-30T12:46:27.803Z,12.10
2018-03-30T12:48:55.527Z,10.60
2018-03-30T12:51:23.233Z,8.60
2018-03-30T12:53:50.976Z,10.83
2018-03-30T12:56:18.703Z,13.00
2018-03-30T12:58:46.435Z,11.80
2018-03-30T13:01:14.170Z,13.33
2018-03-30T13:03:41.896Z,12.33
2018-03-30T13:06:09.620Z,10.30
2018-03-30T13:08:37.370Z,10.57
2018-03-30T13:11:05.086Z,11.80
2018-03-30T13:13:34.720Z,11.50
2018-03-30T13:16:02.834Z,12.73
2018-03-30T13:18:30.921Z,12.30
2018-03-30T13:20:59.458Z,11.73
2018-03-30T13:23:27.274Z,10.57
2018-03-30T13:25:55.425Z,11.27
2018-03-30T13:28:23.222Z,11.13
2018-03-30T13:30:52.078Z,9.77
2018-03-30T13:33:20.559Z,8.60
2018-03-30T13:35:48.461Z,12.07
2018-03-30T13:38:16.756Z,9.30
2018-03-30T13:40:44.615Z,11.10
2018-03-30T13:43:13.447Z,9.13
2018-03-30T13:45:41.945Z,9.77
2018-03-30T13:48:09.870Z,11.40
2018-03-30T13:53:36.672Z,9.37
2018-03-30T13:56:06.866Z,10.03
2018-03-30T13:58:38.123Z,11.80
2018-03-30T14:01:21.503Z,10.47
2018-03-30T14:06:50.691Z,9.70
2018-03-30T14:09:27.970Z,10.83
2018-03-30T14:11:58.270Z,10.07
2018-03-30T14:14:26.030Z,8.30
2018-03-30T14:16:56.478Z,12.43
2018-03-30T14:19:27.809Z,10.40
2018-03-30T14:21:55.532Z,10.13
2018-03-30T14:24:24.120Z,10.80
2018-03-30T14:30:03.135Z,8.70
2018-03-30T14:32:36.522Z,9.50
2018-03-30T14:35:15.706Z,11.27
2018-03-30T14:40:45.144Z,9.90
2018-03-30T14:43:34.938Z,11.03
2018-03-30T14:46:21.531Z,11.57
2018-03-30T14:48:50.863Z,11.83
2018-03-30T14:51:39.354Z,10.37
2018-03-30T14:54:18.144Z,11.80
2018-03-30T14:56:50.751Z,10.80
2018-03-30T14:59:28.547Z,9.40
2018-03-30T15:02:02.182Z,11.47
2018-03-30T15:04:41.440Z,10.70
2018-03-30T15:07:12.858Z,10.70
2018-03-30T15:09:45.401Z,10.23
2018-03-30T15:18:20.922Z,9.13
2018-03-30T15:23:49.676Z,8.53
2018-03-30T15:29:33.453Z,10.20
2018-03-30T15:32:11.671Z,9.73
2018-03-30T15:34:40.982Z,8.20
2018-03-30T15:37:16.546Z,10.50
2018-03-30T15:39:46.115Z,7.83
2018-03-30T15:42:16.812Z,8.87
2018-03-30T15:44:45.243Z,9.27
2018-03-30T15:47:14.913Z,8.90
2018-03-30T15:49:42.722Z,8.30
2018-03-30T15:52:10.510Z,9.37
2018-03-30T15:54:38.251Z,7.90
2018-03-30T15:57:06.019Z,9.87
2018-03-30T15:59:33.843Z,8.20
2018-03-30T16:02:01.720Z,12.17
2018-03-30T16:04:29.613Z,11.17
2018-03-30T16:06:57.531Z,9.40
2018-03-30T16:09:28.704Z,8.70
2018-03-30T16:11:57.876Z,7.73
2018-03-30T16:14:25.595Z,7.93
2018-03-30T16:16:53.362Z,9.80
2018-03-30T16:19:20.607Z,11.00
2018-03-30T16:21:47.756Z,9.80
2018-03-30T16:24:14.904Z,11.70
2018-03-30T16:26:42.119Z,9.90
2018-03-30T16:29:09.269Z,9.47
2018-03-30T16:31:36.482Z,9.90
2018-03-30T16:34:03.693Z,10.40
2018-03-30T16:36:30.874Z,10.57
2018-03-30T16:38:58.355Z,9.13
2018-03-30T16:41:25.518Z,10.00
2018-03-30T16:43:52.746Z,11.00
2018-03-30T16:46:19.910Z,9.70
2018-03-30T16:48:47.070Z,8.97
2018-03-30T16:51:14.261Z,10.13
2018-03-30T16:53:41.386Z,9.97
2018-03-30T16:56:08.577Z,10.17
2018-03-30T16:58:35.833Z,10.20
2018-03-30T17:01:03.174Z,10.17
2018-03-30T17:03:30.301Z,11.03
2018-03-30T17:05:57.470Z,11.10
2018-03-30T17:08:24.670Z,11.30
2018-03-30T17:10:51.879Z,10.07
2018-03-30T17:13:19.112Z,11.63
2018-03-30T17:15:46.321Z,11.30
2018-03-30T17:18:13.482Z,10.30
2018-03-30T17:20:40.671Z,11.50
2018-03-30T17:23:07.833Z,13.23
2018-03-30T17:25:35.010Z,10.13
2018-03-30T17:28:02.236Z,10.37
2018-03-30T17:30:29.670Z,10.90
2018-03-30T17:32:56.878Z,10.77
2018-03-30T17:35:24.241Z,11.97
2018-03-30T17:37:51.402Z,11.40
2018-03-30T17:40:19.464Z,12.37
2018-03-30T17:42:46.892Z,11.53
2018-03-30T17:45:14.115Z,11.37
2018-03-30T17:47:41.270Z,12.53
2018-03-30T17:50:08.447Z,12.60
2018-03-30T17:52:35.638Z,11.90
2018-03-30T17:55:02.840Z,12.73
2018-03-30T17:57:30.029Z,13.30
2018-03-30T17:59:57.700Z,15.60
2018-03-30T18:02:25.473Z,12.40
2018-03-30T18:04:52.647Z,11.90
2018-03-30T18:07:19.881Z,12.13
2018-03-30T18:09:47.074Z,13.50
2018-03-30T18:12:14.273Z,12.07
2018-03-30T18:14:41.458Z,16.13
2018-03-30T18:17:08.631Z,14.70
2018-03-30T18:19:35.807Z,15.93
2018-03-30T18:22:03.009Z,13.90
2018-03-30T18:24:30.206Z,14.13
2018-03-30T18:26:57.447Z,14.83
2018-03-30T18:29:24.615Z,14.83
2018-03-30T18:31:51.827Z,14.57
2018-03-30T18:34:19.005Z,16.53
2018-03-30T18:36:46.190Z,14.57
2018-03-30T18:39:13.389Z,15.23
2018-03-30T18:41:40.543Z,14.50
2018-03-30T18:44:07.691Z,14.80
2018-03-30T18:46:34.845Z,15.20
2018-03-30T18:49:02.012Z,16.03
2018-03-30T18:51:29.231Z,13.33
2018-03-30T18:53:56.405Z,16.37
2018-03-30T18:56:24.322Z,17.27
2018-03-30T18:58:51.475Z,16.47
2018-03-30T19:01:18.729Z,14.10
2018-03-30T19:03:45.868Z,14.07
2018-03-30T19:06:13.054Z,16.00
2018-03-30T19:08:40.235Z,16.40
2018-03-30T19:11:07.420Z,16.17
2018-03-30T19:13:34.597Z,12.20
2018-03-30T19:16:01.773Z,15.40
2018-03-30T19:18:28.945Z,17.23
2018-03-30T19:20:56.128Z,14.10
2018-03-30T19:23:23.301Z,14.37
2018-03-30T19:25:50.463Z,13.43
2018-03-30T19:28:17.623Z,15.00
2018-03-30T19:30:44.814Z,15.67
2018-03-30T19:33:12.103Z,15.73
2018-03-30T19:35:39.297Z,17.83
2018-03-30T19:38:06.560Z,11.60
2018-03-30T19:40:33.696Z,15.87
2018-03-30T19:43:00.934Z,14.73
2018-03-30T19:45:28.090Z,16.23
2018-03-30T19:47:55.257Z,15.10
2018-03-30T19:50:22.440Z,15.40
2018-03-30T19:52:49.609Z,15.70
2018-03-30T19:55:16.745Z,14.63
2018-03-30T19:57:43.936Z,16.33
2018-03-30T20:00:11.174Z,16.80
2018-03-30T20:02:38.363Z,18.03
2018-03-30T20:05:05.521Z,18.20
2018-03-30T20:07:32.688Z,13.20
2018-03-30T20:09:59.846Z,15.17
2018-03-30T20:12:27.051Z,14.03
2018-03-30T20:14:54.266Z,14.00
2018-03-30T20:17:21.448Z,14.50
2018-03-30T20:19:48.578Z,14.10
2018-03-30T20:22:15.800Z,15.27
2018-03-30T20:24:42.941Z,11.97
2018-03-30T20:27:10.140Z,15.17
2018-03-30T20:29:37.335Z,14.67
2018-03-30T20:32:04.486Z,14.43
2018-03-30T20:34:31.645Z,12.80
2018-03-30T20:36:58.807Z,13.30
2018-03-30T20:39:25.970Z,13.63
2018-03-30T20:41:53.126Z,13.40
2018-03-30T20:44:20.243Z,13.10
2018-03-30T20:46:48.846Z,12.83
2018-03-30T20:49:16.103Z,14.60
2018-03-30T20:51:43.254Z,12.33
2018-03-30T20:54:10.405Z,13.03
2018-03-30T20:56:37.532Z,11.27
2018-03-30T20:59:04.753Z,13.50
2018-03-30T21:01:31.993Z,13.63
2018-03-30T21:03:59.190Z,12.63
2018-03-30T21:06:26.362Z,11.67
2018-03-30T21:08:53.542Z,14.00
2018-03-30T21:11:20.737Z,14.07
2018-03-30T21:13:47.994Z,14.03
2018-03-30T21:16:15.180Z,11.50
2018-03-30T21:18:42.422Z,15.10
2018-03-30T21:21:10.065Z,11.70
2018-03-30T21:23:37.323Z,14.77
2018-03-30T21:26:04.581Z,14.70
2018-03-30T21:28:31.838Z,17.00
2018-03-30T21:30:59.015Z,15.10
2018-03-30T21:33:26.243Z,13.50
2018-03-30T21:35:53.392Z,13.10
2018-03-30T21:38:20.670Z,11.77
2018-03-30T21:40:47.931Z,15.13
2018-03-30T21:43:15.159Z,13.77
2018-03-30T21:45:42.437Z,13.20
2018-03-30T21:48:09.615Z,12.40
2018-03-30T21:50:36.751Z,14.50
2018-03-30T21:53:03.961Z,11.70
2018-03-30T21:55:31.105Z,12.50
2018-03-30T21:57:58.296Z,14.30
2018-03-30T22:00:25.440Z,14.13
2018-03-30T22:02:52.589Z,14.27
2018-03-30T22:05:19.858Z,14.30
2018-03-30T22:07:47.118Z,13.97
2018-03-30T22:10:14.302Z,13.07
2018-03-30T22:12:41.566Z,14.90
2018-03-30T22:15:13.100Z,13.47
2018-03-30T22:17:40.268Z,13.03
2018-03-30T22:20:07.462Z,14.90
2018-03-30T22:22:34.671Z,12.40
2018-03-30T22:25:01.822Z,14.67
2018-03-30T22:27:29.026Z,15.90
2018-03-30T22:29:56.201Z,11.33
2018-03-30T22:32:23.454Z,13.00
2018-03-30T22:34:50.635Z,13.20
2018-03-30T22:37:17.797Z,12.20
2018-03-30T22:39:44.994Z,13.57
2018-03-30T22:42:12.167Z,13.27
2018-03-30T22:44:39.367Z,12.17
2018-03-30T22:47:06.523Z,10.50
2018-03-30T22:49:34.659Z,12.53
2018-03-30T22:52:01.808Z,10.80
2018-03-30T22:54:28.973Z,14.07
2018-03-30T22:56:56.197Z,11.77
2018-03-30T22:59:23.440Z,13.27
2018-03-30T23:01:50.631Z,14.90
2018-03-30T23:04:17.982Z,11.43
2018-03-30T23:06:45.229Z,14.03
2018-03-30T23:09:12.390Z,13.17
2018-03-30T23:11:39.554Z,11.67
2018-03-30T23:14:06.702Z,12.77
2018-03-30T23:16:33.869Z,13.40
2018-03-30T23:19:01.018Z,13.90
2018-03-30T23:21:28.190Z,14.47
2018-03-30T23:23:55.373Z,12.20
2018-03-30T23:26:22.553Z,11.10
2018-03-30T23:28:49.704Z,16.20
2018-03-30T23:31:16.882Z,12.10
2018-03-30T23:33:44.045Z,14.37
2018-03-30T23:36:11.262Z,11.60
2018-03-30T23:38:38.435Z,17.40
2018-03-30T23:41:05.631Z,13.43
2018-03-30T23:43:32.816Z,14.93
2018-03-30T23:45:59.988Z,11.27
2018-03-30T23:48:27.182Z,12.33
2018-03-30T23:50:55.315Z,13.47
2018-03-30T23:53:22.457Z,14.23
2018-03-30T23:55:49.620Z,13.93
2018-03-30T23:58:16.783Z,13.57
